createdAt,value
2023-01-23T00:01:32.693Z,99567.94
2023-01-23T00:04:00.771Z,99566.25
2023-01-23T00:06:28.308Z,99570.06
2023-01-23T00:08:56.858Z,99566.50
2023-01-23T00:11:26.500Z,99562.16
2023-01-23T00:13:53.768Z,99554.00
2023-01-23T00:16:23.206Z,99543.78
2023-01-23T00:18:51.264Z,99550.41
2023-01-23T00:21:20.824Z,99551.47
2023-01-23T00:23:50.734Z,99550.19
2023-01-23T00:26:21.245Z,99542.47
2023-01-23T00:28:50.540Z,99544.25
2023-01-23T00:31:24.978Z,99547.50
2023-01-23T00:33:57.844Z,99552.78
2023-01-23T00:36:28.961Z,99556.34
2023-01-23T00:38:56.181Z,99552.09
2023-01-23T00:41:23.790Z,99550.19
2023-01-23T00:43:52.301Z,99541.09
2023-01-23T00:46:21.014Z,99543.47
2023-01-23T00:48:48.314Z,99546.84
2023-01-23T00:51:15.871Z,99552.84
2023-01-23T00:53:43.667Z,99553.00
2023-01-23T00:56:10.974Z,99569.78
2023-01-23T00:58:38.304Z,99570.94
2023-01-23T01:01:05.363Z,99564.69
2023-01-23T01:03:33.209Z,99557.66
2023-01-23T01:06:02.732Z,99545.63
2023-01-23T01:08:29.777Z,99548.12
2023-01-23T01:10:57.489Z,99545.69
2023-01-23T01:13:25.651Z,99547.44
2023-01-23T01:15:53.670Z,99539.88
2023-01-23T01:18:22.023Z,99537.09
2023-01-23T01:20:49.645Z,99542.34
2023-01-23T01:23:17.527Z,99543.78
2023-01-23T01:25:44.680Z,99539.06
2023-01-23T01:28:12.426Z,99534.69
2023-01-23T01:30:40.808Z,99538.91
2023-01-23T01:33:08.190Z,99534.69
2023-01-23T01:35:35.695Z,99533.94
2023-01-23T01:38:02.720Z,99539.06
2023-01-23T01:40:33.340Z,99541.66
2023-01-23T01:43:04.860Z,99535.22
2023-01-23T01:46:08.331Z,99537.72
2023-01-23T01:48:38.353Z,99534.16
2023-01-23T01:51:26.772Z,99537.28
2023-01-23T01:54:06.014Z,99538.63
2023-01-23T01:56:37.225Z,99531.31
2023-01-23T01:59:05.049Z,99530.38
2023-01-23T02:01:32.149Z,99528.41
2023-01-23T02:04:00.086Z,99524.59
2023-01-23T02:06:27.239Z,99531.59
2023-01-23T02:08:58.125Z,99528.09
2023-01-23T02:11:25.517Z,99535.19
2023-01-23T02:13:55.341Z,99531.59
2023-01-23T02:16:31.335Z,99527.25
2023-01-23T02:19:02.318Z,99522.88
2023-01-23T02:21:29.692Z,99519.47
2023-01-23T02:24:31.190Z,99524.50
2023-01-23T02:26:58.961Z,99523.38
2023-01-23T02:29:26.460Z,99527.09
2023-01-23T02:31:56.212Z,99531.09
2023-01-23T02:34:26.064Z,99531.97
2023-01-23T02:36:53.740Z,99533.06
2023-01-23T02:39:21.742Z,99526.56
2023-01-23T02:41:50.873Z,99532.53
2023-01-23T02:44:26.924Z,99530.84
2023-01-23T02:46:56.501Z,99533.97
2023-01-23T02:49:25.576Z,99530.31
2023-01-23T02:51:54.095Z,99523.28
2023-01-23T02:54:22.647Z,99509.38
2023-01-23T02:56:50.194Z,99507.88
2023-01-23T02:59:36.502Z,99506.19
2023-01-23T03:02:05.451Z,99512.22
2023-01-23T03:04:32.720Z,99513.72
2023-01-23T03:06:59.907Z,99504.25
2023-01-23T03:09:27.523Z,99507.75
2023-01-23T03:11:54.724Z,99502.38
2023-01-23T03:14:24.001Z,99504.00
2023-01-23T03:16:54.031Z,99505.16
2023-01-23T03:19:24.356Z,99502.62
2023-01-23T03:21:52.158Z,99510.69
2023-01-23T03:24:20.461Z,99500.06
2023-01-23T03:26:48.725Z,99499.72
2023-01-23T03:29:43.279Z,99490.94
2023-01-23T03:32:12.549Z,99484.75
2023-01-23T03:34:40.008Z,99482.25
2023-01-23T03:37:08.079Z,99484.75
2023-01-23T03:39:54.310Z,99488.94
2023-01-23T03:42:22.233Z,99485.25
2023-01-23T03:44:52.079Z,99483.25
2023-01-23T03:47:20.874Z,99485.69
2023-01-23T03:49:48.344Z,99483.91
2023-01-23T03:52:15.419Z,99488.44
2023-01-23T03:54:43.022Z,99476.03
2023-01-23T03:57:11.058Z,99482.59
2023-01-23T03:59:40.476Z,99484.94
2023-01-23T04:02:07.721Z,99483.69
2023-01-23T04:04:35.338Z,99477.63
2023-01-23T04:07:03.563Z,99482.72
2023-01-23T04:09:30.837Z,99488.25
2023-01-23T04:11:59.617Z,99487.09
2023-01-23T04:14:30.518Z,99493.97
2023-01-23T04:16:59.281Z,99489.53
2023-01-23T04:19:26.359Z,99486.59
2023-01-23T04:21:53.428Z,99483.50
2023-01-23T04:24:20.880Z,99494.72
2023-01-23T04:26:47.913Z,99488.59
2023-01-23T04:29:15.062Z,99488.91
2023-01-23T04:31:43.562Z,99488.22
2023-01-23T04:34:12.615Z,99491.37
2023-01-23T04:36:39.732Z,99496.03
2023-01-23T04:39:07.837Z,99487.22
2023-01-23T04:41:35.289Z,99485.19
2023-01-23T04:44:20.654Z,99490.22
2023-01-23T04:46:50.187Z,99484.00
2023-01-23T04:49:19.424Z,99484.66
2023-01-23T04:51:48.256Z,99479.34
2023-01-23T04:54:17.350Z,99487.88
2023-01-23T04:56:45.589Z,99483.16
2023-01-23T04:59:14.805Z,99489.69
2023-01-23T05:01:43.002Z,99491.09
2023-01-23T05:04:10.214Z,99495.34
2023-01-23T05:06:37.849Z,99508.03
2023-01-23T05:09:05.716Z,99498.72
2023-01-23T05:11:34.924Z,99501.97
2023-01-23T05:14:02.229Z,99512.09
2023-01-23T05:16:30.146Z,99510.53
2023-01-23T05:18:58.296Z,99513.69
2023-01-23T05:21:25.357Z,99508.41
2023-01-23T05:23:52.681Z,99510.91
2023-01-23T05:26:20.171Z,99512.19
2023-01-23T05:28:47.689Z,99518.69
2023-01-23T05:31:15.294Z,99519.69
2023-01-23T05:33:43.095Z,99504.91
2023-01-23T05:36:10.615Z,99517.28
2023-01-23T05:38:38.606Z,99525.53
2023-01-23T05:41:05.752Z,99526.50
2023-01-23T05:43:34.535Z,99524.44
2023-01-23T05:46:02.479Z,99520.16
2023-01-23T05:48:30.589Z,99527.78
2023-01-23T05:50:57.785Z,99513.97
2023-01-23T05:53:26.179Z,99520.66
2023-01-23T05:55:53.363Z,99528.37
2023-01-23T05:58:20.934Z,99530.22
2023-01-23T06:00:48.950Z,99535.50
2023-01-23T06:03:17.142Z,99550.84
2023-01-23T06:05:44.684Z,99534.00
2023-01-23T06:08:12.548Z,99546.81
2023-01-23T06:10:41.608Z,99541.88
2023-01-23T06:13:08.818Z,99546.16
2023-01-23T06:15:36.650Z,99547.16
2023-01-23T06:18:04.684Z,99547.00
2023-01-23T06:20:31.795Z,99550.50
2023-01-23T06:22:58.970Z,99560.09
2023-01-23T06:25:27.024Z,99560.09
2023-01-23T06:27:55.152Z,99561.78
2023-01-23T06:30:23.253Z,99563.09
2023-01-23T06:32:50.895Z,99568.31
2023-01-23T06:35:19.686Z,99572.66
2023-01-23T06:37:47.108Z,99577.66
2023-01-23T06:40:14.804Z,99575.06
2023-01-23T06:42:42.852Z,99584.84
2023-01-23T06:45:11.320Z,99583.38
2023-01-23T06:47:38.877Z,99587.53
2023-01-23T06:50:09.480Z,99578.91
2023-01-23T06:52:36.617Z,99591.38
2023-01-23T06:55:04.128Z,99585.16
2023-01-23T06:57:31.276Z,99584.22
2023-01-23T06:59:59.259Z,99592.78
2023-01-23T07:02:26.662Z,99592.34
2023-01-23T07:04:55.085Z,99608.22
2023-01-23T07:07:22.179Z,99610.56
2023-01-23T07:09:49.803Z,99607.22
2023-01-23T07:12:17.821Z,99609.66
2023-01-23T07:14:45.142Z,99607.78
2023-01-23T07:17:12.962Z,99605.44
2023-01-23T07:19:40.383Z,99607.78
2023-01-23T07:22:07.890Z,99611.69
2023-01-23T07:24:35.305Z,99615.88
2023-01-23T07:27:02.651Z,99607.13
2023-01-23T07:29:29.854Z,99607.31
2023-01-23T07:31:58.754Z,99612.53
2023-01-23T07:34:25.805Z,99611.87
2023-01-23T07:36:52.892Z,99623.25
2023-01-23T07:39:20.482Z,99617.88
2023-01-23T07:41:50.261Z,99610.41
2023-01-23T07:44:20.100Z,99612.00
2023-01-23T07:46:48.168Z,99617.94
2023-01-23T07:49:15.663Z,99622.44
2023-01-23T07:51:42.653Z,99622.53
2023-01-23T07:54:10.367Z,99619.09
2023-01-23T07:56:37.471Z,99627.06
2023-01-23T07:59:04.645Z,99621.03
2023-01-23T08:01:32.065Z,99608.28
2023-01-23T08:03:59.494Z,99618.06
2023-01-23T08:06:26.598Z,99617.69
2023-01-23T08:08:53.748Z,99619.72
2023-01-23T08:11:21.201Z,99613.94
2023-01-23T08:13:51.349Z,99635.34
2023-01-23T08:16:18.584Z,99617.28
2023-01-23T08:18:45.974Z,99630.78
2023-01-23T08:21:12.989Z,99632.94
2023-01-23T08:23:41.220Z,99637.75
2023-01-23T08:26:09.824Z,99626.56
2023-01-23T08:28:36.948Z,99624.72
2023-01-23T08:31:07.245Z,99622.84
2023-01-23T08:33:35.926Z,99629.28
2023-01-23T08:36:04.462Z,99628.81
2023-01-23T08:38:31.811Z,99624.25
2023-01-23T08:41:01.813Z,99627.34
2023-01-23T08:43:29.650Z,99640.56
2023-01-23T08:45:57.863Z,99633.03
2023-01-23T08:48:26.318Z,99648.38
2023-01-23T08:51:00.511Z,99655.53
2023-01-23T08:53:28.551Z,99640.00
2023-01-23T08:56:00.110Z,99648.09
2023-01-23T08:58:27.531Z,99639.78
2023-01-23T09:00:55.018Z,99649.31
2023-01-23T09:03:22.261Z,99644.91
2023-01-23T09:05:49.779Z,99643.91
2023-01-23T09:08:17.058Z,99649.84
2023-01-23T09:10:44.679Z,99652.88
2023-01-23T09:13:12.141Z,99650.94
2023-01-23T09:15:39.882Z,99656.88
2023-01-23T09:18:07.085Z,99653.19
2023-01-23T09:20:34.436Z,99648.94
2023-01-23T09:23:01.689Z,99642.97
2023-01-23T09:25:31.221Z,99654.00
2023-01-23T09:27:58.555Z,99648.19
2023-01-23T09:30:25.795Z,99640.50
2023-01-23T09:32:53.486Z,99646.06
2023-01-23T09:35:20.871Z,99644.91
2023-01-23T09:38:00.068Z,99650.13
2023-01-23T09:40:33.436Z,99646.06
2023-01-23T09:43:08.242Z,99642.94
2023-01-23T09:45:36.960Z,99650.03
2023-01-23T09:48:29.923Z,99643.97
2023-01-23T09:51:14.526Z,99651.19
2023-01-23T09:53:42.553Z,99645.13
2023-01-23T09:56:33.964Z,99653.25
2023-01-23T09:59:11.578Z,99645.63
2023-01-23T10:01:39.093Z,99644.16
2023-01-23T10:04:07.206Z,99638.81
2023-01-23T10:06:48.245Z,99646.25
2023-01-23T10:09:27.589Z,99642.87
2023-01-23T10:12:01.710Z,99631.91
2023-01-23T10:14:56.468Z,99629.00
2023-01-23T10:17:26.400Z,99641.97
2023-01-23T10:20:21.759Z,99655.44
2023-01-23T10:23:06.921Z,99651.69
2023-01-23T10:25:37.732Z,99647.09
2023-01-23T10:28:16.612Z,99641.19
2023-01-23T10:30:50.128Z,99646.12
2023-01-23T10:33:18.267Z,99633.88
2023-01-23T10:35:53.280Z,99629.06
2023-01-23T10:38:58.899Z,99624.88
2023-01-23T10:41:26.303Z,99638.59
2023-01-23T10:43:54.897Z,99631.38
2023-01-23T10:46:32.727Z,99636.38
2023-01-23T10:49:01.550Z,99633.38
2023-01-23T10:51:30.769Z,99624.88
2023-01-23T10:54:06.630Z,99628.84
2023-01-23T10:56:38.549Z,99629.69
2023-01-23T10:59:06.804Z,99623.62
2023-01-23T11:01:37.428Z,99616.94
2023-01-23T11:04:18.803Z,99623.62
2023-01-23T11:07:01.072Z,99616.59
2023-01-23T11:09:28.536Z,99614.56
2023-01-23T11:12:06.585Z,99611.59
2023-01-23T11:14:33.700Z,99615.59
2023-01-23T11:17:15.666Z,99612.66
2023-01-23T11:19:44.256Z,99611.16
2023-01-23T11:22:33.455Z,99603.66
2023-01-23T11:25:00.727Z,99599.72
2023-01-23T11:27:31.110Z,99601.16
2023-01-23T11:30:19.480Z,99595.38
2023-01-23T11:32:55.285Z,99590.66
2023-01-23T11:35:27.687Z,99568.09
2023-01-23T11:37:56.885Z,99583.47
2023-01-23T11:40:23.984Z,99580.06
2023-01-23T11:42:52.637Z,99583.09
2023-01-23T11:45:43.581Z,99578.03
2023-01-23T11:48:35.481Z,99567.09
2023-01-23T11:51:08.206Z,99574.84
2023-01-23T11:53:45.092Z,99566.13
2023-01-23T11:56:34.079Z,99562.38
2023-01-23T11:59:41.360Z,99565.03
2023-01-23T12:02:23.241Z,99564.31
2023-01-23T12:05:05.907Z,99562.91
2023-01-23T12:07:57.341Z,99566.84
2023-01-23T12:10:31.032Z,99563.41
2023-01-23T12:13:13.309Z,99563.66
2023-01-23T12:16:08.295Z,99565.56
2023-01-23T12:18:36.234Z,99555.56
2023-01-23T12:21:25.582Z,99564.19
2023-01-23T12:24:35.430Z,99565.25
2023-01-23T12:27:11.586Z,99581.34
2023-01-23T12:29:57.372Z,99558.87
2023-01-23T12:32:30.634Z,99570.94
2023-01-23T12:35:09.612Z,99568.66
2023-01-23T12:37:52.475Z,99562.59
2023-01-23T12:41:02.868Z,99569.97
2023-01-23T12:43:33.171Z,99571.31
2023-01-23T12:46:25.624Z,99569.84
2023-01-23T12:49:05.985Z,99568.75
2023-01-23T12:51:39.627Z,99585.25
2023-01-23T12:54:15.506Z,99588.47
2023-01-23T12:56:43.706Z,99580.00
2023-01-23T12:59:18.199Z,99580.41
2023-01-23T13:02:04.014Z,99579.84
2023-01-23T13:04:31.391Z,99578.56
2023-01-23T13:07:23.165Z,99592.81
2023-01-23T13:10:05.173Z,99578.66
2023-01-23T13:12:32.774Z,99591.19
2023-01-23T13:15:38.854Z,99595.31
2023-01-23T13:18:24.211Z,99593.62
2023-01-23T13:21:17.694Z,99593.03
2023-01-23T13:23:44.869Z,99592.59
2023-01-23T13:26:15.392Z,99593.16
2023-01-23T13:28:45.955Z,99581.53
2023-01-23T13:31:37.277Z,99594.44
2023-01-23T13:34:16.606Z,99596.13
2023-01-23T13:36:51.096Z,99603.22
2023-01-23T13:39:17.936Z,99600.50
2023-01-23T13:41:49.709Z,99609.25
2023-01-23T13:44:40.203Z,99610.03
2023-01-23T14:21:57.296Z,99618.16
2023-01-23T14:24:27.221Z,99620.16
2023-01-23T14:27:07.316Z,99619.78
2023-01-23T14:29:35.792Z,99621.03
2023-01-23T14:32:03.463Z,99622.94
2023-01-23T14:34:38.967Z,99626.81
2023-01-23T14:37:08.815Z,99629.44
2023-01-23T14:39:36.451Z,99631.75
2023-01-23T14:42:05.388Z,99626.81
2023-01-23T14:44:44.568Z,99612.37
2023-01-23T14:47:16.387Z,99632.16
2023-01-23T14:49:44.347Z,99635.94
2023-01-23T14:52:25.055Z,99614.22
2023-01-23T14:54:54.712Z,99629.13
2023-01-23T14:57:23.736Z,99629.25
2023-01-23T14:59:53.337Z,99633.97
2023-01-23T15:02:41.373Z,99645.25
2023-01-23T15:05:27.045Z,99629.28
2023-01-23T15:08:03.186Z,99637.97
2023-01-23T15:10:42.885Z,99645.47
2023-01-23T15:13:23.408Z,99652.53
2023-01-23T15:15:56.639Z,99642.47
2023-01-23T15:18:27.595Z,99655.25
2023-01-23T15:21:08.228Z,99656.31
2023-01-23T15:23:40.337Z,99659.84
2023-01-23T15:26:19.518Z,99658.81
2023-01-23T15:28:52.925Z,99662.12
2023-01-23T15:31:38.289Z,99663.38
2023-01-23T15:34:14.913Z,99673.13
2023-01-23T15:37:00.146Z,99683.28
2023-01-23T15:39:30.443Z,99679.28
2023-01-23T15:42:19.285Z,99690.25
2023-01-23T15:44:46.782Z,99678.75
2023-01-23T15:47:13.882Z,99685.56
2023-01-23T15:49:40.951Z,99679.53
2023-01-23T15:52:19.163Z,99682.84
2023-01-23T15:54:46.509Z,99686.53
2023-01-23T15:57:14.284Z,99686.63
2023-01-23T15:59:41.329Z,99686.19
2023-01-23T16:02:31.258Z,99686.44
2023-01-23T16:05:01.052Z,99689.34
2023-01-23T16:07:36.606Z,99691.88
2023-01-23T16:10:38.126Z,99687.47
2023-01-23T16:13:06.655Z,99696.25
2023-01-23T16:15:35.102Z,99690.28
2023-01-23T16:18:04.666Z,99689.16
2023-01-23T16:20:54.283Z,99699.59
2023-01-23T16:23:24.715Z,99698.53
2023-01-23T16:25:53.207Z,99709.63
2023-01-23T16:28:23.792Z,99699.56
2023-01-23T16:30:51.824Z,99707.00
2023-01-23T16:33:20.071Z,99710.03
2023-01-23T16:35:48.714Z,99713.38
2023-01-23T16:38:22.802Z,99717.00
2023-01-23T16:40:52.977Z,99721.94
2023-01-23T16:43:21.258Z,99725.19
2023-01-23T16:45:48.491Z,99716.59
2023-01-23T16:48:29.687Z,99730.94
2023-01-23T16:51:14.355Z,99736.88
2023-01-23T16:53:41.979Z,99738.47
2023-01-23T16:56:19.859Z,99734.81
2023-01-23T16:58:47.025Z,99731.12
2023-01-23T17:01:16.696Z,99739.38
2023-01-23T17:03:44.381Z,99745.34
2023-01-23T17:06:16.165Z,99748.81
2023-01-23T17:08:43.619Z,99742.81
2023-01-23T17:11:17.659Z,99743.22
2023-01-23T17:13:45.145Z,99749.00
2023-01-23T17:16:26.171Z,99749.75
2023-01-23T17:18:55.129Z,99748.91
2023-01-23T17:21:23.796Z,99750.66
2023-01-23T17:23:51.051Z,99749.13
2023-01-23T17:26:19.121Z,99746.59
2023-01-23T17:28:46.634Z,99750.47
2023-01-23T17:31:20.391Z,99746.19
2023-01-23T17:33:47.647Z,99746.59
2023-01-23T17:36:15.008Z,99753.06
2023-01-23T17:38:42.260Z,99750.25
2023-01-23T17:41:14.267Z,99757.47
2023-01-23T17:43:43.393Z,99752.50
2023-01-23T17:46:31.576Z,99756.19
2023-01-23T17:48:58.720Z,99760.13
2023-01-23T17:51:26.749Z,99758.63
2023-01-23T17:53:53.918Z,99758.03
2023-01-23T17:56:21.045Z,99755.09
2023-01-23T17:58:48.443Z,99760.94
2023-01-23T18:01:24.456Z,99767.84
2023-01-23T18:03:52.593Z,99763.25
2023-01-23T18:06:19.806Z,99765.53
2023-01-23T18:08:47.181Z,99755.09
2023-01-23T18:11:20.214Z,99760.31
2023-01-23T18:14:08.113Z,99770.03
2023-01-23T18:16:45.284Z,99767.22
2023-01-23T18:19:22.093Z,99760.00
2023-01-23T18:21:54.853Z,99767.03
2023-01-23T18:24:26.961Z,99768.69
2023-01-23T18:27:10.971Z,99766.56
2023-01-23T18:29:44.143Z,99760.72
2023-01-23T18:32:50.592Z,99762.41
2023-01-23T18:35:23.430Z,99767.75
2023-01-23T18:38:08.248Z,99770.88
2023-01-23T18:40:45.849Z,99761.09
2023-01-23T18:43:16.063Z,99765.94
2023-01-23T18:45:43.442Z,99765.16
2023-01-23T18:48:25.090Z,99779.81
2023-01-23T18:51:38.595Z,99784.94
2023-01-23T18:54:05.783Z,99785.81
2023-01-23T18:56:45.756Z,99788.59
2023-01-23T18:59:24.019Z,99795.19
2023-01-23T19:01:54.897Z,99800.12
2023-01-23T19:04:34.463Z,99794.25
2023-01-23T19:07:02.737Z,99792.59
2023-01-23T19:09:33.892Z,99791.75
2023-01-23T19:12:02.077Z,99801.75
2023-01-23T19:14:47.080Z,99804.56
2023-01-23T19:17:48.255Z,99805.88
2023-01-23T19:20:32.947Z,99791.53
2023-01-23T19:23:25.514Z,99797.88
2023-01-23T19:25:52.761Z,99801.97
2023-01-23T19:28:20.459Z,99803.47
2023-01-23T19:30:47.813Z,99806.34
2023-01-23T19:33:19.453Z,99806.62
2023-01-23T19:35:48.059Z,99810.84
2023-01-23T19:38:15.201Z,99809.16
2023-01-23T19:40:43.022Z,99811.22
2023-01-23T19:43:17.589Z,99820.63
2023-01-23T19:45:45.311Z,99820.63
2023-01-23T19:48:13.242Z,99817.09
2023-01-23T19:50:40.684Z,99819.97
2023-01-23T19:53:08.024Z,99821.00
2023-01-23T19:55:38.353Z,99819.53
2023-01-23T19:58:05.922Z,99823.44
2023-01-23T20:00:36.031Z,99825.00
2023-01-23T20:03:05.037Z,99824.28
2023-01-23T20:05:32.433Z,99831.91
2023-01-23T20:08:01.082Z,99832.00
2023-01-23T20:10:28.625Z,99830.31
2023-01-23T20:12:56.767Z,99836.75
2023-01-23T20:15:25.470Z,99838.22
2023-01-23T20:17:53.657Z,99833.87
2023-01-23T20:20:21.260Z,99834.06
2023-01-23T20:22:48.526Z,99828.66
2023-01-23T20:25:16.883Z,99835.16
2023-01-23T20:27:44.527Z,99843.81
2023-01-23T20:30:17.753Z,99849.91
2023-01-23T20:32:45.338Z,99846.72
2023-01-23T20:35:12.409Z,99852.59
2023-01-23T20:37:39.488Z,99848.78
2023-01-23T20:40:11.425Z,99848.13
2023-01-23T20:42:39.486Z,99854.00
2023-01-23T20:45:08.099Z,99856.50
2023-01-23T20:47:36.149Z,99851.75
2023-01-23T20:50:05.174Z,99853.59
2023-01-23T20:52:51.193Z,99855.38
2023-01-23T20:55:18.338Z,99858.91
2023-01-23T20:58:04.025Z,99860.22
2023-01-23T21:00:31.185Z,99866.47
2023-01-23T21:02:58.578Z,99864.87
2023-01-23T21:05:25.658Z,99873.72
2023-01-23T21:07:52.771Z,99875.75
2023-01-23T21:10:20.220Z,99881.16
2023-01-23T21:12:47.283Z,99881.44
2023-01-23T21:15:14.539Z,99880.66
2023-01-23T21:17:41.895Z,99881.88
2023-01-23T21:20:10.921Z,99891.63
2023-01-23T21:22:38.008Z,99891.91
2023-01-23T21:25:05.890Z,99893.78
2023-01-23T21:27:36.304Z,99895.50
2023-01-23T21:30:03.885Z,99897.69
2023-01-23T21:32:34.128Z,99900.88
2023-01-23T21:35:01.213Z,99902.03
2023-01-23T21:37:28.475Z,99909.44
2023-01-23T21:39:55.868Z,99912.03
2023-01-23T21:42:23.001Z,99916.69
2023-01-23T21:44:52.648Z,99911.13
2023-01-23T21:47:20.025Z,99915.16
2023-01-23T21:49:47.194Z,99912.28
2023-01-23T21:52:14.323Z,99913.94
2023-01-23T21:54:43.197Z,99921.00
2023-01-23T21:57:10.306Z,99919.94
2023-01-23T21:59:40.406Z,99921.72
2023-01-23T22:02:07.795Z,99915.00
2023-01-23T22:04:35.310Z,99926.19
2023-01-23T22:07:02.360Z,99935.28
2023-01-23T22:09:29.536Z,99931.87
2023-01-23T22:11:56.881Z,99933.50
2023-01-23T22:14:24.013Z,99937.12
2023-01-23T22:16:51.458Z,99938.69
2023-01-23T22:19:24.578Z,99937.78
2023-01-23T22:21:55.879Z,99930.66
2023-01-23T22:24:23.636Z,99941.19
2023-01-23T22:26:50.759Z,99934.75
2023-01-23T22:29:17.809Z,99940.28
2023-01-23T22:31:45.213Z,99937.84
2023-01-23T22:34:12.365Z,99941.28
2023-01-23T22:36:39.450Z,99945.50
2023-01-23T22:39:06.780Z,99947.59
2023-01-23T22:41:33.762Z,99946.19
2023-01-23T22:44:00.760Z,99943.41
2023-01-23T22:46:28.712Z,99941.44
2023-01-23T22:48:55.815Z,99948.91
2023-01-23T22:51:27.361Z,99949.75
2023-01-23T22:53:55.631Z,99953.78
2023-01-23T22:56:23.764Z,99962.53
2023-01-23T22:58:52.055Z,99953.72
2023-01-23T23:01:19.601Z,99961.44
2023-01-23T23:03:46.850Z,99960.56
2023-01-23T23:06:15.734Z,99958.75
2023-01-23T23:08:46.352Z,99962.19
2023-01-23T23:11:23.412Z,99968.28
2023-01-23T23:13:51.064Z,99965.59
2023-01-23T23:16:20.828Z,99965.91
2023-01-23T23:18:50.215Z,99972.09
2023-01-23T23:21:20.563Z,99963.06
2023-01-23T23:23:47.908Z,99959.53
2023-01-23T23:26:15.487Z,99962.00
2023-01-23T23:28:42.964Z,99955.94
2023-01-23T23:31:10.196Z,99959.16
2023-01-23T23:33:37.491Z,99954.53
2023-01-23T23:36:05.322Z,99960.47
2023-01-23T23:38:32.602Z,99961.53
2023-01-23T23:41:04.850Z,99964.69
2023-01-23T23:43:32.595Z,99964.69
2023-01-23T23:46:04.783Z,99967.12
2023-01-23T23:48:33.492Z,99968.66
2023-01-23T23:51:01.806Z,99970.44
2023-01-23T23:53:28.943Z,99961.84
2023-01-23T23:55:56.609Z,99970.16
2023-01-23T23:58:26.631Z,99973.91
